Time;durP1;ratioP1;P1;durP2;ratioP2;P2;SDS_P1;SDS_P2;PMS_P1;PMS_P2;Temp;Humidity;BMP_temperature;BMP_pressure;BME280_temperature;BME280_humidity;BME280_pressure;Samples;Min_cycle;Max_cycle;Signal;HPM_P1;HPM_P2
2024/02/17 00:00:03;;;;;;;11.67;5.73;;;;;;;;;;5034899;28;20701;-78
2024/02/17 00:02:29;;;;;;;8.53;5.77;;;;;;;;;;5035227;28;20432;-80
2024/02/17 00:04:55;;;;;;;10.53;5.57;;;;;;;;;;5035238;28;20771;-74
2024/02/17 00:07:21;;;;;;;8.53;4.93;;;;;;;;;;5035100;28;20403;-77
2024/02/17 00:09:47;;;;;;;8.63;5.80;;;;;;;;;;5035005;28;20232;-75
2024/02/17 00:12:13;;;;;;;7.67;5.37;;;;;;;;;;5035049;28;20411;-79
2024/02/17 00:14:39;;;;;;;8.10;4.93;;;;;;;;;;5034626;28;20447;-77
2024/02/17 00:17:05;;;;;;;8.53;6.00;;;;;;;;;;5034831;28;20416;-78
2024/02/17 00:19:31;;;;;;;11.13;5.90;;;;;;;;;;5034804;28;20919;-79
2024/02/17 00:21:57;;;;;;;10.30;5.47;;;;;;;;;;5034751;28;20418;-81
2024/02/17 00:24:24;;;;;;;10.40;5.50;;;;;;;;;;5033326;28;20426;-82
2024/02/17 00:26:50;;;;;;;10.73;7.20;;;;;;;;;;5034724;28;20411;-80
2024/02/17 00:29:16;;;;;;;11.57;6.53;;;;;;;;;;5034381;28;20600;-76
2024/02/17 00:31:43;;;;;;;10.23;5.93;;;;;;;;;;5034673;28;20407;-80
2024/02/17 00:34:09;;;;;;;11.27;6.03;;;;;;;;;;5034464;28;20450;-82
2024/02/17 00:36:37;;;;;;;9.90;5.40;;;;;;;;;;5034567;28;20505;-76
2024/02/17 00:39:04;;;;;;;13.03;7.10;;;;;;;;;;5034604;28;20176;-75
2024/02/17 00:41:30;;;;;;;11.63;7.40;;;;;;;;;;5034550;28;20412;-77
2024/02/17 00:43:56;;;;;;;12.43;7.50;;;;;;;;;;5034135;28;20941;-81
2024/02/17 00:46:22;;;;;;;12.83;7.50;;;;;;;;;;5034344;28;20411;-77
2024/02/17 00:48:48;;;;;;;13.20;7.40;;;;;;;;;;5034453;28;20475;-76
2024/02/17 00:51:15;;;;;;;17.07;10.20;;;;;;;;;;5034417;28;20403;-77
2024/02/17 00:53:42;;;;;;;16.87;8.97;;;;;;;;;;5034388;28;20437;-79
2024/02/17 00:56:08;;;;;;;16.60;8.67;;;;;;;;;;5034431;28;20445;-79
2024/02/17 00:58:34;;;;;;;14.60;8.40;;;;;;;;;;5034027;28;20426;-82
2024/02/17 01:01:00;;;;;;;14.33;9.50;;;;;;;;;;5034421;28;20414;-80
2024/02/17 01:03:26;;;;;;;13.63;8.70;;;;;;;;;;5034317;28;20421;-82
2024/02/17 01:05:52;;;;;;;13.93;8.70;;;;;;;;;;5032938;28;20418;-85
2024/02/17 01:08:18;;;;;;;15.20;9.33;;;;;;;;;;5034131;28;20954;-82
2024/02/17 01:10:44;;;;;;;18.63;9.80;;;;;;;;;;5034094;28;20179;-79
2024/02/17 01:13:13;;;;;;;15.00;10.20;;;;;;;;;;5034339;28;20425;-82
2024/02/17 01:15:39;;;;;;;11.33;9.63;;;;;;;;;;5033678;28;20476;-86
2024/02/17 01:18:05;;;;;;;14.03;8.00;;;;;;;;;;5032615;28;20471;-83
2024/02/17 01:20:31;;;;;;;18.10;10.10;;;;;;;;;;5034204;28;20448;-84
2024/02/17 01:22:57;;;;;;;15.27;9.77;;;;;;;;;;5033970;28;20418;-82
2024/02/17 01:25:24;;;;;;;16.43;9.00;;;;;;;;;;5034003;28;20414;-80
2024/02/17 01:27:50;;;;;;;14.80;6.93;;;;;;;;;;5033788;28;20229;-79
2024/02/17 01:30:16;;;;;;;15.00;8.40;;;;;;;;;;5033360;28;20415;-80
2024/02/17 01:32:42;;;;;;;9.90;7.57;;;;;;;;;;5033735;28;20405;-79
2024/02/17 01:35:08;;;;;;;12.07;7.43;;;;;;;;;;5032447;28;20426;-79
2024/02/17 01:37:34;;;;;;;14.33;8.97;;;;;;;;;;5033041;28;20171;-80
2024/02/17 01:40:00;;;;;;;10.00;6.30;;;;;;;;;;5033589;28;20509;-81
2024/02/17 01:42:26;;;;;;;11.03;6.00;;;;;;;;;;5033578;28;20414;-82
2024/02/17 01:44:52;;;;;;;10.50;5.70;;;;;;;;;;5033221;28;20418;-79
2024/02/17 01:47:19;;;;;;;10.37;6.50;;;;;;;;;;5033524;28;20413;-81
2024/02/17 01:49:45;;;;;;;11.73;7.13;;;;;;;;;;5033293;28;20559;-81
2024/02/17 01:52:14;;;;;;;12.23;6.60;;;;;;;;;;5032036;28;20579;-79
2024/02/17 01:54:40;;;;;;;8.97;6.00;;;;;;;;;;5033085;28;20437;-80
2024/02/17 01:57:07;;;;;;;13.23;6.20;;;;;;;;;;5033213;28;20409;-79
2024/02/17 01:59:33;;;;;;;12.30;5.63;;;;;;;;;;5031493;28;20433;-77
2024/02/17 02:02:00;;;;;;;8.37;5.20;;;;;;;;;;5033029;28;20424;-79
2024/02/17 02:04:26;;;;;;;12.47;4.80;;;;;;;;;;5033126;28;20414;-80
2024/02/17 02:06:52;;;;;;;9.30;5.30;;;;;;;;;;5032944;28;20460;-80
2024/02/17 02:09:23;;;;;;;9.53;4.20;;;;;;;;;;5032798;28;20466;-80
2024/02/17 02:11:55;;;;;;;5.83;3.60;;;;;;;;;;5031673;28;20940;-78
2024/02/17 02:14:21;;;;;;;9.80;3.73;;;;;;;;;;5030745;28;20506;-79
2024/02/17 02:16:48;;;;;;;6.93;3.70;;;;;;;;;;5032808;28;20833;-80
2024/02/17 02:19:14;;;;;;;7.10;3.37;;;;;;;;;;5032669;28;20472;-80
2024/02/17 02:21:40;;;;;;;7.80;3.10;;;;;;;;;;5032699;28;20410;-86
2024/02/17 02:24:06;;;;;;;5.77;2.10;;;;;;;;;;5031500;28;20873;-80
2024/02/17 02:26:32;;;;;;;5.93;3.03;;;;;;;;;;5032732;28;20421;-78
2024/02/17 02:29:02;;;;;;;8.87;4.23;;;;;;;;;;5032243;28;20499;-82
2024/02/17 02:31:37;;;;;;;7.47;2.40;;;;;;;;;;5032710;28;20413;-80
2024/02/17 02:34:03;;;;;;;7.23;3.47;;;;;;;;;;5031137;28;20415;-80
2024/02/17 02:36:28;;;;;;;6.17;3.37;;;;;;;;;;5032528;28;20471;-79
2024/02/17 02:38:56;;;;;;;5.40;2.97;;;;;;;;;;5032473;28;20430;-80
2024/02/17 02:41:21;;;;;;;4.97;3.00;;;;;;;;;;5032503;28;20480;-81
2024/02/17 02:43:49;;;;;;;6.87;2.67;;;;;;;;;;5032301;28;20417;-81
2024/02/17 02:46:15;;;;;;;10.13;3.90;;;;;;;;;;5032567;28;20411;-82
2024/02/17 02:48:41;;;;;;;5.80;3.27;;;;;;;;;;5031758;28;20519;-80
2024/02/17 02:51:07;;;;;;;5.37;2.57;;;;;;;;;;5047820;28;20418;-80
2024/02/17 02:53:33;;;;;;;7.33;2.83;;;;;;;;;;5031924;28;20402;-79
2024/02/17 02:55:59;;;;;;;8.00;3.67;;;;;;;;;;5031043;28;20411;-79
2024/02/17 02:58:28;;;;;;;6.70;3.33;;;;;;;;;;5031813;28;20809;-80
2024/02/17 03:00:54;;;;;;;7.33;3.57;;;;;;;;;;5032145;28;20406;-82
2024/02/17 03:03:19;;;;;;;3.97;2.70;;;;;;;;;;5047950;28;20418;-82
2024/02/17 03:05:45;;;;;;;6.53;3.00;;;;;;;;;;5032395;28;20432;-80
2024/02/17 03:08:11;;;;;;;6.43;3.30;;;;;;;;;;5030755;28;20466;-81
2024/02/17 03:10:37;;;;;;;8.47;2.93;;;;;;;;;;5032220;28;20422;-79
2024/02/17 03:13:03;;;;;;;4.17;2.40;;;;;;;;;;5032274;28;20425;-79
2024/02/17 03:15:29;;;;;;;4.73;2.67;;;;;;;;;;5033336;28;20910;-79
2024/02/17 03:17:55;;;;;;;4.37;1.60;;;;;;;;;;5032318;28;20481;-79
2024/02/17 03:20:21;;;;;;;6.90;2.70;;;;;;;;;;5032377;28;20177;-79
2024/02/17 03:22:47;;;;;;;2.40;0.57;;;;;;;;;;5032192;28;20187;-80
2024/02/17 03:25:13;;;;;;;1.70;0.60;;;;;;;;;;5032409;28;20451;-79
2024/02/17 03:27:39;;;;;;;3.63;0.93;;;;;;;;;;5030916;28;20437;-79
2024/02/17 03:30:06;;;;;;;3.00;0.40;;;;;;;;;;5031825;28;20412;-78
2024/02/17 03:32:41;;;;;;;2.83;0.73;;;;;;;;;;5032265;28;20921;-79
2024/02/17 03:35:07;;;;;;;1.37;0.30;;;;;;;;;;5032236;28;20414;-78
2024/02/17 03:37:33;;;;;;;1.93;0.20;;;;;;;;;;5032169;28;20445;-79
2024/02/17 03:39:59;;;;;;;1.90;0.20;;;;;;;;;;5032184;28;20440;-79
2024/02/17 03:42:25;;;;;;;1.03;0.30;;;;;;;;;;5032263;28;20506;-78
2024/02/17 03:44:54;;;;;;;0.40;0.20;;;;;;;;;;5031713;28;20980;-79
2024/02/17 03:47:20;;;;;;;3.67;0.50;;;;;;;;;;5031922;28;20423;-77
2024/02/17 03:49:45;;;;;;;2.03;0.80;;;;;;;;;;5031884;28;20536;-80
2024/02/17 03:52:11;;;;;;;0.80;0.30;;;;;;;;;;5032094;28;20410;-78
2024/02/17 03:54:37;;;;;;;2.40;0.30;;;;;;;;;;5047329;28;20424;-79
2024/02/17 03:57:04;;;;;;;2.40;0.40;;;;;;;;;;5031965;28;20421;-79
2024/02/17 03:59:30;;;;;;;2.40;0.83;;;;;;;;;;5032740;28;20413;-81
2024/02/17 04:01:55;;;;;;;1.40;0.40;;;;;;;;;;5035428;28;20424;-79
2024/02/17 04:04:24;;;;;;;1.90;0.33;;;;;;;;;;5035467;28;20821;-80
2024/02/17 04:06:50;;;;;;;1.50;0.60;;;;;;;;;;5035391;28;20452;-79
2024/02/17 04:09:16;;;;;;;6.00;0.50;;;;;;;;;;5035266;28;20508;-81
2024/02/17 04:11:42;;;;;;;2.30;0.60;;;;;;;;;;5035281;28;20414;-80
2024/02/17 04:14:08;;;;;;;1.63;0.47;;;;;;;;;;5034818;28;20476;-81
2024/02/17 04:16:34;;;;;;;0.90;0.30;;;;;;;;;;5050541;28;20826;-79
2024/02/17 04:19:00;;;;;;;1.23;0.30;;;;;;;;;;5051278;28;20475;-80
2024/02/17 04:21:26;;;;;;;1.33;0.23;;;;;;;;;;5055087;28;20772;-80
2024/02/17 04:23:52;;;;;;;1.80;0.87;;;;;;;;;;5043689;28;20441;-80
2024/02/17 04:26:18;;;;;;;1.53;0.57;;;;;;;;;;5033216;28;20415;-81
2024/02/17 04:28:45;;;;;;;2.10;0.77;;;;;;;;;;5033961;28;20538;-81
2024/02/17 04:31:11;;;;;;;2.57;0.70;;;;;;;;;;5034445;28;20409;-82
2024/02/17 04:33:38;;;;;;;4.20;0.40;;;;;;;;;;5033160;28;20428;-83
2024/02/17 04:36:05;;;;;;;3.03;0.60;;;;;;;;;;5034522;28;20691;-79
2024/02/17 04:38:31;;;;;;;1.50;0.63;;;;;;;;;;5031860;28;20418;-79
2024/02/17 04:40:57;;;;;;;2.00;0.80;;;;;;;;;;5034179;28;20416;-84
2024/02/17 04:43:23;;;;;;;1.70;0.30;;;;;;;;;;5034000;28;20531;-83
2024/02/17 04:45:49;;;;;;;0.80;0.20;;;;;;;;;;5033977;28;20504;-82
2024/02/17 04:48:15;;;;;;;2.73;0.40;;;;;;;;;;5034053;28;20477;-82
2024/02/17 04:50:41;;;;;;;1.67;0.23;;;;;;;;;;5034069;28;20408;-83
2024/02/17 04:53:07;;;;;;;0.80;0.30;;;;;;;;;;5033935;28;20413;-84
2024/02/17 04:55:34;;;;;;;2.23;0.30;;;;;;;;;;5034043;28;20412;-79
2024/02/17 04:58:00;;;;;;;1.20;0.20;;;;;;;;;;5033649;28;20778;-80
2024/02/17 05:00:26;;;;;;;1.50;0.30;;;;;;;;;;5033854;28;20409;-79
2024/02/17 05:02:51;;;;;;;0.63;0.20;;;;;;;;;;5033911;28;20441;-79
2024/02/17 05:05:19;;;;;;;0.97;0.20;;;;;;;;;;5033765;28;20417;-80
2024/02/17 05:07:45;;;;;;;0.30;0.20;;;;;;;;;;5033597;28;20428;-81
2024/02/17 05:10:11;;;;;;;0.30;0.20;;;;;;;;;;5033360;28;20428;-79
2024/02/17 05:12:40;;;;;;;1.00;0.40;;;;;;;;;;5032945;28;20409;-80
2024/02/17 05:15:07;;;;;;;1.93;0.30;;;;;;;;;;5033206;28;20478;-78
2024/02/17 05:17:33;;;;;;;0.80;0.20;;;;;;;;;;5036153;28;20983;-79
2024/02/17 05:19:59;;;;;;;0.77;0.40;;;;;;;;;;5043803;28;20774;-79
2024/02/17 05:22:25;;;;;;;1.30;0.20;;;;;;;;;;5042355;28;20420;-78
2024/02/17 05:24:54;;;;;;;2.47;0.47;;;;;;;;;;5044227;28;20443;-79
2024/02/17 05:27:20;;;;;;;1.33;0.20;;;;;;;;;;5043715;28;20417;-81
2024/02/17 05:29:46;;;;;;;0.90;0.20;;;;;;;;;;5040542;28;20479;-79
2024/02/17 05:32:11;;;;;;;0.30;0.20;;;;;;;;;;5044118;28;20399;-79
2024/02/17 05:34:39;;;;;;;3.60;0.23;;;;;;;;;;5043181;28;20413;-79
2024/02/17 05:37:06;;;;;;;2.10;0.20;;;;;;;;;;5042032;28;20488;-79
2024/02/17 05:39:32;;;;;;;2.83;0.30;;;;;;;;;;5042247;28;20412;-79
2024/02/17 05:41:59;;;;;;;0.70;0.20;;;;;;;;;;5042996;28;20412;-80
2024/02/17 05:44:25;;;;;;;2.50;0.60;;;;;;;;;;5043916;28;20408;-79
2024/02/17 05:46:57;;;;;;;5.90;0.20;;;;;;;;;;5042129;28;20494;-80
2024/02/17 05:49:23;;;;;;;1.87;0.30;;;;;;;;;;5041181;28;20864;-79
2024/02/17 05:51:49;;;;;;;2.63;0.23;;;;;;;;;;5043916;28;20406;-81
2024/02/17 05:54:17;;;;;;;3.53;0.30;;;;;;;;;;5042730;28;20424;-80
2024/02/17 05:56:43;;;;;;;4.57;0.90;;;;;;;;;;5040932;28;20818;-79
2024/02/17 05:59:09;;;;;;;0.97;0.30;;;;;;;;;;5043541;28;20899;-80
2024/02/17 06:01:35;;;;;;;0.97;0.30;;;;;;;;;;5042502;28;20411;-79
2024/02/17 06:04:01;;;;;;;2.47;0.43;;;;;;;;;;5042244;28;20423;-81
2024/02/17 06:06:27;;;;;;;1.60;0.23;;;;;;;;;;5043895;28;20426;-80
2024/02/17 06:08:53;;;;;;;3.90;0.60;;;;;;;;;;5042302;28;20869;-79
2024/02/17 06:11:20;;;;;;;0.90;0.20;;;;;;;;;;5042698;28;20415;-78
2024/02/17 06:13:46;;;;;;;2.10;0.30;;;;;;;;;;5043572;28;20455;-79
2024/02/17 06:16:13;;;;;;;2.93;0.60;;;;;;;;;;5041932;28;20437;-78
2024/02/17 06:21:23;;;;;;;1.27;0.27;;;;;;;;;;5042897;28;20448;-80
2024/02/17 06:23:51;;;;;;;2.57;0.43;;;;;;;;;;5039391;28;20421;-79
2024/02/17 06:26:24;;;;;;;4.67;0.20;;;;;;;;;;5042578;28;20758;-79
2024/02/17 06:28:50;;;;;;;2.00;0.20;;;;;;;;;;5041034;28;20495;-78
2024/02/17 06:31:16;;;;;;;2.77;0.40;;;;;;;;;;5042500;28;20495;-78
2024/02/17 06:33:42;;;;;;;1.10;0.20;;;;;;;;;;5042750;28;20416;-79
2024/02/17 06:36:08;;;;;;;4.23;0.40;;;;;;;;;;5041229;28;20887;-78
2024/02/17 06:38:34;;;;;;;0.63;0.20;;;;;;;;;;5042800;28;21055;-81
2024/02/17 06:41:00;;;;;;;2.97;0.50;;;;;;;;;;5042580;28;20479;-78
2024/02/17 06:43:26;;;;;;;2.83;0.30;;;;;;;;;;5040727;28;20420;-78
2024/02/17 06:45:52;;;;;;;2.70;0.27;;;;;;;;;;5042959;28;20407;-80
2024/02/17 06:48:18;;;;;;;2.67;0.30;;;;;;;;;;5041898;28;20599;-80
2024/02/17 06:50:43;;;;;;;4.17;0.87;;;;;;;;;;5041182;28;20955;-79
2024/02/17 06:53:09;;;;;;;3.47;1.30;;;;;;;;;;5042950;28;20427;-78
2024/02/17 06:55:36;;;;;;;5.00;0.87;;;;;;;;;;5041641;28;20420;-79
2024/02/17 06:58:02;;;;;;;2.23;0.30;;;;;;;;;;5007082;28;20905;-78
2024/02/17 07:00:28;;;;;;;7.77;1.13;;;;;;;;;;5041739;28;20422;-84
2024/02/17 07:02:54;;;;;;;6.87;0.63;;;;;;;;;;5041183;28;20424;-79
2024/02/17 07:05:20;;;;;;;7.70;1.07;;;;;;;;;;5041569;28;20405;-79
2024/02/17 07:07:46;;;;;;;4.37;0.93;;;;;;;;;;5042709;28;20807;-79
2024/02/17 07:10:12;;;;;;;5.27;0.50;;;;;;;;;;5041043;28;20452;-79
2024/02/17 07:12:38;;;;;;;6.30;0.93;;;;;;;;;;5041470;28;20462;-80
2024/02/17 07:15:04;;;;;;;2.77;0.47;;;;;;;;;;5042762;28;20444;-78
2024/02/17 07:17:30;;;;;;;6.00;1.03;;;;;;;;;;5041215;28;20982;-82
2024/02/17 07:19:56;;;;;;;4.47;0.77;;;;;;;;;;5042603;28;20951;-79
2024/02/17 07:22:22;;;;;;;4.23;0.63;;;;;;;;;;5007008;28;20415;-78
2024/02/17 07:24:50;;;;;;;8.55;1.30;;;;;;;;;;5041725;28;20772;-79
2024/02/17 07:27:16;;;;;;;2.60;0.37;;;;;;;;;;5044428;28;20169;-78
2024/02/17 07:29:43;;;;;;;8.33;0.63;;;;;;;;;;5051859;28;20477;-80
2024/02/17 07:32:09;;;;;;;4.87;0.63;;;;;;;;;;5052853;28;20495;-80
2024/02/17 07:34:36;;;;;;;8.77;1.37;;;;;;;;;;5054103;28;20448;-82
2024/02/17 07:37:07;;;;;;;5.07;0.47;;;;;;;;;;5056503;28;20406;-82
2024/02/17 07:39:35;;;;;;;3.80;1.03;;;;;;;;;;5056418;28;20420;-79
2024/02/17 07:42:02;;;;;;;6.03;0.67;;;;;;;;;;5054983;28;20465;-81
2024/02/17 07:44:30;;;;;;;7.77;0.47;;;;;;;;;;5055820;28;20418;-82
2024/02/17 07:46:56;;;;;;;7.50;0.87;;;;;;;;;;5038712;28;20524;-82
2024/02/17 07:49:29;;;;;;;7.73;0.77;;;;;;;;;;5055880;28;20477;-84
2024/02/17 07:51:55;;;;;;;6.50;1.13;;;;;;;;;;5054773;28;20950;-84
2024/02/17 07:54:22;;;;;;;3.20;0.33;;;;;;;;;;5056095;28;20455;-82
2024/02/17 07:56:50;;;;;;;5.40;1.10;;;;;;;;;;5055939;28;20415;-82
2024/02/17 07:59:17;;;;;;;10.53;1.27;;;;;;;;;;5054144;28;20435;-82
2024/02/17 08:01:43;;;;;;;6.07;0.70;;;;;;;;;;5057849;28;20445;-82
2024/02/17 08:04:09;;;;;;;6.30;0.97;;;;;;;;;;5056852;28;20426;-84
2024/02/17 08:06:35;;;;;;;5.37;0.37;;;;;;;;;;5055614;28;20422;-80
2024/02/17 08:09:01;;;;;;;6.70;0.70;;;;;;;;;;5055267;28;20470;-80
2024/02/17 08:11:26;;;;;;;7.20;1.03;;;;;;;;;;5055388;28;20410;-80
2024/02/17 08:13:52;;;;;;;6.10;0.77;;;;;;;;;;5054944;28;20448;-81
2024/02/17 08:16:18;;;;;;;4.57;0.67;;;;;;;;;;5053848;28;20447;-82
2024/02/17 08:18:45;;;;;;;6.70;0.50;;;;;;;;;;5055271;28;20471;-82
2024/02/17 08:21:12;;;;;;;11.83;2.00;;;;;;;;;;5055393;28;20407;-84
2024/02/17 08:23:38;;;;;;;13.87;2.03;;;;;;;;;;5055086;28;20423;-86
2024/02/17 08:26:05;;;;;;;6.50;0.70;;;;;;;;;;5055261;28;20469;-83
2024/02/17 08:28:35;;;;;;;7.83;1.03;;;;;;;;;;5054702;28;20902;-82
2024/02/17 08:31:01;;;;;;;11.13;1.90;;;;;;;;;;5054751;28;20400;-81
2024/02/17 08:33:27;;;;;;;11.50;0.97;;;;;;;;;;5049548;28;20417;-82
2024/02/17 08:35:53;;;;;;;7.97;1.33;;;;;;;;;;5038078;28;20453;-80
2024/02/17 08:38:18;;;;;;;7.23;0.87;;;;;;;;;;5040497;28;20425;-80
2024/02/17 08:40:44;;;;;;;7.43;1.07;;;;;;;;;;5034665;28;20175;-80
2024/02/17 08:43:10;;;;;;;6.97;1.00;;;;;;;;;;5034225;28;20483;-81
2024/02/17 08:45:45;;;;;;;10.27;0.70;;;;;;;;;;5034380;28;20417;-84
2024/02/17 08:48:12;;;;;;;7.00;0.53;;;;;;;;;;5034499;28;20501;-80
2024/02/17 08:50:38;;;;;;;13.63;2.13;;;;;;;;;;5034501;28;20523;-80
2024/02/17 08:53:04;;;;;;;7.10;1.40;;;;;;;;;;5034381;28;20495;-80
2024/02/17 08:55:30;;;;;;;11.00;1.37;;;;;;;;;;5032907;28;20212;-80
2024/02/17 08:57:56;;;;;;;7.50;1.43;;;;;;;;;;5034061;28;20415;-81
2024/02/17 09:00:24;;;;;;;10.23;1.13;;;;;;;;;;5034423;28;20417;-83
2024/02/17 09:02:50;;;;;;;6.50;1.23;;;;;;;;;;5032995;28;20424;-80
2024/02/17 09:05:15;;;;;;;10.50;2.10;;;;;;;;;;5033879;28;20947;-79
2024/02/17 09:07:41;;;;;;;15.07;1.53;;;;;;;;;;5016426;28;20423;-81
2024/02/17 09:10:08;;;;;;;9.13;1.50;;;;;;;;;;5034092;28;20520;-82
2024/02/17 09:12:34;;;;;;;4.77;1.00;;;;;;;;;;5015952;28;20416;-82
2024/02/17 09:15:00;;;;;;;4.37;0.60;;;;;;;;;;5022032;28;20408;-81
2024/02/17 09:17:26;;;;;;;10.60;2.60;;;;;;;;;;5037223;28;20458;-82
2024/02/17 09:19:52;;;;;;;10.70;1.40;;;;;;;;;;5053851;28;20442;-81
2024/02/17 09:22:18;;;;;;;12.30;1.23;;;;;;;;;;5052620;28;20849;-81
2024/02/17 09:24:44;;;;;;;8.67;0.90;;;;;;;;;;5052615;28;20173;-81
2024/02/17 09:27:10;;;;;;;8.83;1.33;;;;;;;;;;5052103;28;20415;-82
2024/02/17 09:29:35;;;;;;;14.90;2.93;;;;;;;;;;5053639;28;20467;-82
2024/02/17 09:32:04;;;;;;;8.80;0.93;;;;;;;;;;5053573;28;20418;-81
2024/02/17 09:34:31;;;;;;;8.63;1.30;;;;;;;;;;5053662;28;20912;-80
2024/02/17 09:36:57;;;;;;;11.43;1.30;;;;;;;;;;5053528;28;20412;-80
2024/02/17 09:39:26;;;;;;;13.63;1.90;;;;;;;;;;5051873;28;20420;-81
2024/02/17 09:41:54;;;;;;;10.20;1.30;;;;;;;;;;5052768;28;20407;-76
2024/02/17 09:44:20;;;;;;;8.77;1.27;;;;;;;;;;5033117;28;20412;-75
2024/02/17 09:46:46;;;;;;;11.83;1.23;;;;;;;;;;5033365;28;20415;-76
2024/02/17 09:49:15;;;;;;;9.03;0.90;;;;;;;;;;5033210;28;20468;-78
2024/02/17 09:51:45;;;;;;;6.50;0.93;;;;;;;;;;5032837;28;20406;-76
2024/02/17 09:54:12;;;;;;;11.50;1.50;;;;;;;;;;5033277;28;20909;-76
2024/02/17 09:56:38;;;;;;;6.83;0.70;;;;;;;;;;5032827;28;20759;-76
2024/02/17 09:59:04;;;;;;;10.50;1.10;;;;;;;;;;5032746;28;20410;-76
2024/02/17 10:01:30;;;;;;;11.53;2.03;;;;;;;;;;5032951;28;20185;-77
2024/02/17 10:03:56;;;;;;;9.47;1.17;;;;;;;;;;5032877;28;20800;-75
2024/02/17 10:06:22;;;;;;;11.33;0.97;;;;;;;;;;5033064;28;20878;-76
2024/02/17 10:08:49;;;;;;;6.13;1.60;;;;;;;;;;5031681;28;20840;-78
2024/02/17 10:11:15;;;;;;;6.70;1.07;;;;;;;;;;5031689;28;20419;-76
2024/02/17 10:13:42;;;;;;;7.50;1.60;;;;;;;;;;5032562;28;20428;-77
2024/02/17 10:16:10;;;;;;;8.27;0.70;;;;;;;;;;5031435;28;20425;-76
2024/02/17 10:18:44;;;;;;;11.57;1.50;;;;;;;;;;5018574;28;20565;-77
2024/02/17 10:21:10;;;;;;;10.23;1.33;;;;;;;;;;5012960;28;21028;-78
2024/02/17 10:23:36;;;;;;;13.03;3.53;;;;;;;;;;5013002;28;20502;-77
2024/02/17 10:26:03;;;;;;;14.70;3.40;;;;;;;;;;5011894;28;20457;-76
2024/02/17 10:28:29;;;;;;;7.37;0.87;;;;;;;;;;5012622;28;20962;-75
2024/02/17 10:30:55;;;;;;;10.10;1.53;;;;;;;;;;5012958;28;20481;-76
2024/02/17 10:33:21;;;;;;;11.73;0.90;;;;;;;;;;5012912;28;20413;-76
2024/02/17 10:35:47;;;;;;;11.93;1.07;;;;;;;;;;5014205;28;20418;-76
2024/02/17 10:38:13;;;;;;;13.53;1.70;;;;;;;;;;5019989;28;20465;-76
2024/02/17 10:40:39;;;;;;;13.43;1.17;;;;;;;;;;5017725;28;20423;-76
2024/02/17 10:43:05;;;;;;;11.53;1.90;;;;;;;;;;5012454;28;20511;-79
2024/02/17 10:45:31;;;;;;;8.87;1.60;;;;;;;;;;5012806;28;20505;-79
2024/02/17 10:48:03;;;;;;;8.27;2.03;;;;;;;;;;5011291;28;20455;-77
2024/02/17 10:50:29;;;;;;;8.63;1.10;;;;;;;;;;5012713;28;20417;-80
2024/02/17 10:53:02;;;;;;;10.83;1.20;;;;;;;;;;5011254;28;20481;-76
2024/02/17 10:55:31;;;;;;;8.40;1.80;;;;;;;;;;5018554;28;20786;-82
2024/02/17 10:58:10;;;;;;;12.93;1.90;;;;;;;;;;5011183;28;20425;-80
2024/02/17 11:00:36;;;;;;;14.73;2.47;;;;;;;;;;5019588;28;20410;-77
2024/02/17 11:03:03;;;;;;;10.17;1.00;;;;;;;;;;5026510;28;20448;-79
2024/02/17 11:05:30;;;;;;;17.40;1.93;;;;;;;;;;5024540;28;20791;-82
2024/02/17 11:07:56;;;;;;;10.37;1.57;;;;;;;;;;5018223;28;20798;-80
2024/02/17 11:10:28;;;;;;;9.20;1.60;;;;;;;;;;5019926;28;20419;-78
2024/02/17 11:12:55;;;;;;;15.90;2.73;;;;;;;;;;5021368;28;20423;-75
2024/02/17 11:15:21;;;;;;;9.17;2.60;;;;;;;;;;5016695;28;20413;-78
2024/02/17 11:17:51;;;;;;;14.57;1.33;;;;;;;;;;5022694;28;20471;-77
2024/02/17 11:20:17;;;;;;;14.83;2.50;;;;;;;;;;5036256;28;20415;-77
2024/02/17 11:22:49;;;;;;;10.77;2.10;;;;;;;;;;5047722;28;20414;-81
2024/02/17 11:25:35;;;;;;;14.37;1.80;;;;;;;;;;5050180;28;20419;-81
2024/02/17 11:28:02;;;;;;;12.27;1.70;;;;;;;;;;5028675;28;20423;-78
2024/02/17 11:30:28;;;;;;;10.00;1.60;;;;;;;;;;5036557;28;20475;-79
2024/02/17 11:32:58;;;;;;;15.63;1.23;;;;;;;;;;5036371;28;20417;-79
2024/02/17 11:35:24;;;;;;;7.60;1.13;;;;;;;;;;5036098;28;20456;-80
2024/02/17 11:37:53;;;;;;;7.13;1.47;;;;;;;;;;5036377;28;20737;-83
2024/02/17 11:40:20;;;;;;;7.73;1.17;;;;;;;;;;5035600;28;20427;-82
2024/02/17 11:42:47;;;;;;;8.90;1.33;;;;;;;;;;5035787;28;20764;-78
2024/02/17 11:45:16;;;;;;;9.03;1.00;;;;;;;;;;5036045;28;20792;-78
2024/02/17 11:47:42;;;;;;;16.00;2.20;;;;;;;;;;5035896;28;20430;-78
2024/02/17 11:50:09;;;;;;;8.90;1.23;;;;;;;;;;5035814;28;20523;-79
2024/02/17 11:52:35;;;;;;;12.70;2.73;;;;;;;;;;5035661;28;20505;-80
2024/02/17 11:55:05;;;;;;;12.60;2.53;;;;;;;;;;5049904;28;20456;-87
2024/02/17 11:57:31;;;;;;;17.53;2.03;;;;;;;;;;5036603;28;20418;-90
2024/02/17 11:59:57;;;;;;;5.43;0.83;;;;;;;;;;5037167;28;20788;-88
2024/02/17 12:02:24;;;;;;;4.20;0.40;;;;;;;;;;5037146;28;20411;-88
2024/02/17 12:04:52;;;;;;;7.50;1.10;;;;;;;;;;5040839;28;20501;-82
2024/02/17 12:07:21;;;;;;;17.80;2.00;;;;;;;;;;5047483;28;20496;-88
2024/02/17 12:09:47;;;;;;;13.70;1.77;;;;;;;;;;5043538;28;20539;-87
2024/02/17 12:12:13;;;;;;;8.80;1.33;;;;;;;;;;5026566;28;20458;-88
2024/02/17 12:14:39;;;;;;;9.47;1.97;;;;;;;;;;5041610;28;20267;-89
2024/02/17 12:17:08;;;;;;;12.20;2.23;;;;;;;;;;5042763;28;20409;-80
2024/02/17 12:19:34;;;;;;;13.73;1.40;;;;;;;;;;5040137;28;20404;-88
2024/02/17 12:22:00;;;;;;;16.33;2.50;;;;;;;;;;5040232;28;20408;-83
2024/02/17 12:24:26;;;;;;;9.07;1.10;;;;;;;;;;5043089;28;20495;-78
2024/02/17 12:26:53;;;;;;;14.83;1.60;;;;;;;;;;5042280;28;20210;-80
2024/02/17 12:29:19;;;;;;;9.90;1.30;;;;;;;;;;5046175;28;20480;-93
2024/02/17 12:31:50;;;;;;;7.67;1.83;;;;;;;;;;5041912;28;20432;-89
2024/02/17 12:34:27;;;;;;;6.87;0.80;;;;;;;;;;5038036;28;20449;-90
2024/02/17 12:36:53;;;;;;;9.33;1.70;;;;;;;;;;5037439;28;20412;-86
2024/02/17 12:39:19;;;;;;;6.70;0.70;;;;;;;;;;5037687;28;20936;-87
2024/02/17 12:41:45;;;;;;;8.67;1.60;;;;;;;;;;5037637;28;20416;-86
2024/02/17 12:44:14;;;;;;;9.60;1.10;;;;;;;;;;5037720;28;20530;-82
2024/02/17 12:46:40;;;;;;;10.77;2.50;;;;;;;;;;5035687;28;20409;-80
2024/02/17 12:49:06;;;;;;;8.30;2.00;;;;;;;;;;5038691;28;20492;-78
2024/02/17 12:51:34;;;;;;;8.30;1.00;;;;;;;;;;5035902;28;20414;-79
2024/02/17 12:54:00;;;;;;;10.07;1.87;;;;;;;;;;5017711;28;20420;-82
2024/02/17 12:56:26;;;;;;;6.97;1.33;;;;;;;;;;5036472;28;20429;-78
2024/02/17 12:58:52;;;;;;;8.13;1.10;;;;;;;;;;5034436;28;20534;-78
2024/02/17 13:01:18;;;;;;;11.37;1.83;;;;;;;;;;5035974;28;20443;-84
2024/02/17 13:03:45;;;;;;;6.63;1.17;;;;;;;;;;5040510;28;20426;-86
2024/02/17 13:06:11;;;;;;;9.97;1.70;;;;;;;;;;5034400;28;20470;-79
2024/02/17 13:08:37;;;;;;;9.57;1.60;;;;;;;;;;5034120;28;20970;-78
2024/02/17 13:11:06;;;;;;;9.13;1.60;;;;;;;;;;5033999;28;21034;-77
2024/02/17 13:13:33;;;;;;;5.30;1.67;;;;;;;;;;5033843;28;20420;-78
2024/02/17 13:16:03;;;;;;;16.00;2.00;;;;;;;;;;5033082;28;20425;-78
2024/02/17 13:18:29;;;;;;;10.67;1.47;;;;;;;;;;5033418;28;21044;-80
2024/02/17 13:20:55;;;;;;;11.40;2.90;;;;;;;;;;5033764;28;20513;-86
2024/02/17 13:23:21;;;;;;;13.83;1.90;;;;;;;;;;5016691;28;20433;-81
2024/02/17 13:25:49;;;;;;;12.43;3.17;;;;;;;;;;5035878;28;20896;-91
2024/02/17 13:28:15;;;;;;;8.20;1.30;;;;;;;;;;5035547;28;20928;-88
2024/02/17 13:30:43;;;;;;;9.67;1.60;;;;;;;;;;5036112;28;20421;-79
2024/02/17 13:33:08;;;;;;;9.00;1.37;;;;;;;;;;5033857;28;20773;-90
2024/02/17 13:35:35;;;;;;;11.57;2.07;;;;;;;;;;5034659;28;20423;-91
2024/02/17 13:38:01;;;;;;;11.60;1.23;;;;;;;;;;5034336;28;20413;-85
2024/02/17 13:40:27;;;;;;;5.47;1.00;;;;;;;;;;5034149;28;20440;-85
2024/02/17 13:42:53;;;;;;;6.47;1.80;;;;;;;;;;5033757;28;20808;-83
2024/02/17 13:45:19;;;;;;;12.17;2.23;;;;;;;;;;5016996;28;20487;-84
2024/02/17 13:47:45;;;;;;;13.40;2.20;;;;;;;;;;5034674;28;20439;-85
2024/02/17 13:50:13;;;;;;;10.03;1.17;;;;;;;;;;5034845;28;20834;-81
2024/02/17 13:52:39;;;;;;;12.37;1.40;;;;;;;;;;5034971;28;21121;-82
2024/02/17 13:55:05;;;;;;;11.90;1.87;;;;;;;;;;5016278;28;20788;-79
2024/02/17 13:57:32;;;;;;;8.10;1.80;;;;;;;;;;5032590;28;20898;-81
2024/02/17 13:59:59;;;;;;;12.20;2.10;;;;;;;;;;5033337;28;20457;-83
2024/02/17 14:02:28;;;;;;;9.73;1.13;;;;;;;;;;5015489;28;20439;-80
2024/02/17 14:04:55;;;;;;;10.97;1.30;;;;;;;;;;5033065;28;20834;-79
2024/02/17 14:07:21;;;;;;;13.53;1.83;;;;;;;;;;5033585;28;20466;-85
2024/02/17 14:09:47;;;;;;;12.20;2.03;;;;;;;;;;5034056;28;20548;-79
2024/02/17 14:12:15;;;;;;;9.00;2.47;;;;;;;;;;5015928;28;20445;-81
2024/02/17 14:14:41;;;;;;;11.93;1.37;;;;;;;;;;5033695;28;20423;-82
2024/02/17 14:17:07;;;;;;;10.70;1.60;;;;;;;;;;5031615;28;20430;-80
2024/02/17 14:19:37;;;;;;;11.23;2.20;;;;;;;;;;5034025;28;20769;-91
2024/02/17 14:22:04;;;;;;;11.77;2.30;;;;;;;;;;5036392;28;20473;-87
2024/02/17 14:24:32;;;;;;;11.93;1.53;;;;;;;;;;5036151;28;20451;-92
2024/02/17 14:26:59;;;;;;;8.90;2.93;;;;;;;;;;5038212;28;20419;-87
2024/02/17 14:29:25;;;;;;;4.40;0.80;;;;;;;;;;5034259;28;20527;-94
2024/02/17 14:31:51;;;;;;;15.60;1.77;;;;;;;;;;5033541;28;20502;-80
2024/02/17 14:34:17;;;;;;;7.43;1.43;;;;;;;;;;5032832;28;20437;-84
2024/02/17 14:36:43;;;;;;;10.80;2.83;;;;;;;;;;5032476;28;20410;-79